Map

Track Data

SID SEASON NUMBER BASIN SUBBASIN NAME ISO_TIME NATURE LAT LON WMO_WIND WMO_PRES WMO_AGENCY TRACK_TYPE DIST2LAND LANDFALL IFLAG USA_AGENCY USA_ATCF_ID USA_LAT USA_LON USA_RECORD USA_STATUS USA_WIND USA_PRES USA_SSHS USA_R34_NE USA_R34_SE USA_R34_SW USA_R34_NW USA_R50_NE USA_R50_SE USA_R50_SW USA_R50_NW USA_R64_NE USA_R64_SE USA_R64_SW USA_R64_NW USA_POCI USA_ROCI USA_RMW USA_EYE TOKYO_LAT TOKYO_LON TOKYO_GRADE TOKYO_WIND TOKYO_PRES TOKYO_R50_DIR TOKYO_R50_LONG TOKYO_R50_SHORT TOKYO_R30_DIR TOKYO_R30_LONG TOKYO_R30_SHORT TOKYO_LAND CMA_LAT CMA_LON CMA_CAT CMA_WIND CMA_PRES HKO_LAT HKO_LON HKO_CAT HKO_WIND HKO_PRES NEWDELHI_LAT NEWDELHI_LON NEWDELHI_GRADE NEWDELHI_WIND NEWDELHI_PRES NEWDELHI_CI NEWDELHI_DP NEWDELHI_POCI REUNION_LAT REUNION_LON REUNION_TYPE REUNION_WIND REUNION_PRES REUNION_TNUM REUNION_CI REUNION_RMW REUNION_R34_NE REUNION_R34_SE REUNION_R34_SW REUNION_R34_NW REUNION_R50_NE REUNION_R50_SE REUNION_R50_SW REUNION_R50_NW REUNION_R64_NE REUNION_R64_SE REUNION_R64_SW REUNION_R64_NW BOM_LAT BOM_LON BOM_TYPE BOM_WIND BOM_PRES BOM_TNUM BOM_CI BOM_RMW BOM_R34_NE BOM_R34_SE BOM_R34_SW BOM_R34_NW BOM_R50_NE BOM_R50_SE BOM_R50_SW BOM_R50_NW BOM_R64_NE BOM_R64_SE BOM_R64_SW BOM_R64_NW BOM_ROCI BOM_POCI BOM_EYE BOM_POS_METHOD BOM_PRES_METHOD NADI_LAT NADI_LON NADI_CAT NADI_WIND NADI_PRES WELLINGTON_LAT WELLINGTON_LON WELLINGTON_WIND WELLINGTON_PRES DS824_LAT DS824_LON DS824_STAGE DS824_WIND DS824_PRES TD9636_LAT TD9636_LON TD9636_STAGE TD9636_WIND TD9636_PRES TD9635_LAT TD9635_LON TD9635_WIND TD9635_PRES TD9635_ROCI NEUMANN_LAT NEUMANN_LON NEUMANN_CLASS NEUMANN_WIND NEUMANN_PRES MLC_LAT MLC_LON MLC_CLASS MLC_WIND MLC_PRES USA_GUST BOM_GUST BOM_GUST_PER REUNION_GUST REUNION_GUST_PER USA_SEAHGT USA_SEARAD_NE USA_SEARAD_SE USA_SEARAD_SW USA_SEARAD_NW STORM_SPEED STORM_DIR
1910239N27268 1910 33 NA GM NOT_NAMED 1910-08-26 12:00:00 TS 26.7000 -91.7000 30 hurdat_atl main 279 279 O_____________ hurdat_atl AL021910 26.7000 -91.7000 TD 30 -1 3 270
1910239N27268 1910 33 NA GM NOT_NAMED 1910-08-26 15:00:00 TS 26.7000 -91.8525 main 285 285 P_____________ AL021910 26.7000 -91.8525 TD 30 -1 3 270
1910239N27268 1910 33 NA GM NOT_NAMED 1910-08-26 18:00:00 TS 26.7000 -92.0000 30 hurdat_atl main 288 288 O_____________ hurdat_atl AL021910 26.7000 -92.0000 TD 30 -1 3 270
1910239N27268 1910 33 NA GM NOT_NAMED 1910-08-26 21:00:00 TS 26.7000 -92.1425 main 292 292 P_____________ AL021910 26.7000 -92.1425 TD 30 -1 3 270
1910239N27268 1910 33 NA GM NOT_NAMED 1910-08-27 00:00:00 TS 26.7000 -92.3000 30 hurdat_atl main 301 301 O_____________ hurdat_atl AL021910 26.7000 -92.3000 TD 30 -1 3 270
1910239N27268 1910 33 NA GM NOT_NAMED 1910-08-27 03:00:00 TS 26.7000 -92.5000 main 310 310 P_____________ AL021910 26.7000 -92.5000 TD 30 -1 4 270
1910239N27268 1910 33 NA GM NOT_NAMED 1910-08-27 06:00:00 TS 26.7000 -92.7000 30 hurdat_atl main 315 315 O_____________ hurdat_atl AL021910 26.7000 -92.7000 TD 30 -1 3 270
1910239N27268 1910 33 NA GM NOT_NAMED 1910-08-27 09:00:00 TS 26.6999 -92.8500 main 318 318 P_____________ AL021910 26.6999 -92.8500 TD 30 -1 3 270
1910239N27268 1910 33 NA GM NOT_NAMED 1910-08-27 12:00:00 TS 26.7000 -93.0000 30 hurdat_atl main 320 320 O_____________ hurdat_atl AL021910 26.7000 -93.0000 TD 30 -1 3 271
1910239N27268 1910 33 NA GM NOT_NAMED 1910-08-27 15:00:00 TS 26.7075 -93.1925 main 323 311 P_____________ AL021910 26.7075 -93.1925 TD 30 -1 4 270
1910239N27268 1910 33 NA GM NOT_NAMED 1910-08-27 18:00:00 TS 26.7000 -93.4000 30 hurdat_atl main 311 301 O_____________ hurdat_atl AL021910 26.7000 -93.4000 TD 30 -1 4 261
1910239N27268 1910 33 NA GM NOT_NAMED 1910-08-27 21:00:00 TS 26.6500 -93.6001 main 310 301 P_____________ AL021910 26.6500 -93.6001 TD 30 -1 4 254
1910239N27268 1910 33 NA GM NOT_NAMED 1910-08-28 00:00:00 TS 26.6000 -93.8000 30 hurdat_atl main 301 291 O_____________ hurdat_atl AL021910 26.6000 -93.8000 TD 30 -1 4 262
1910239N27268 1910 33 NA GM NOT_NAMED 1910-08-28 03:00:00 TS 26.6000 -94.0074 main 291 282 P_____________ AL021910 26.6000 -94.0074 TD 30 -1 4 270
1910239N27268 1910 33 NA GM NOT_NAMED 1910-08-28 06:00:00 TS 26.6000 -94.2000 30 hurdat_atl main 282 278 O_____________ hurdat_atl AL021910 26.6000 -94.2000 TD 30 -1 3 261
1910239N27268 1910 33 NA GM NOT_NAMED 1910-08-28 09:00:00 TS 26.5500 -94.3575 main 274 265 P_____________ AL021910 26.5500 -94.3575 TD 30 -1 3 249
1910239N27268 1910 33 NA GM NOT_NAMED 1910-08-28 12:00:00 TS 26.5000 -94.5000 30 hurdat_atl main 265 255 O_____________ hurdat_atl AL021910 26.5000 -94.5000 TD 30 -1 3 259
1910239N27268 1910 33 NA GM NOT_NAMED 1910-08-28 15:00:00 TS 26.5000 -94.6575 main 245 235 P_____________ AL021910 26.5000 -94.6575 TD 30 -1 3 270
1910239N27268 1910 33 NA GM NOT_NAMED 1910-08-28 18:00:00 TS 26.5000 -94.8000 30 hurdat_atl main 235 226 O_____________ hurdat_atl AL021910 26.5000 -94.8000 TD 30 -1 2 257
1910239N27268 1910 33 NA GM NOT_NAMED 1910-08-28 21:00:00 TS 26.4500 -94.9075 main 223 214 P_____________ AL021910 26.4500 -94.9075 TD 30 -1 2 240
1910239N27268 1910 33 NA GM NOT_NAMED 1910-08-29 00:00:00 TS 26.4000 -95.0000 30 hurdat_atl main 214 204 O_____________ hurdat_atl AL021910 26.4000 -95.0000 TD 30 -1 2 254
1910239N27268 1910 33 NA GM NOT_NAMED 1910-08-29 03:00:00 TS 26.4000 -95.0925 main 204 194 P_____________ AL021910 26.4000 -95.0925 TD 30 -1 2 270
1910239N27268 1910 33 NA GM NOT_NAMED 1910-08-29 06:00:00 TS 26.4000 -95.2000 30 hurdat_atl main 194 184 O_____________ hurdat_atl AL021910 26.4000 -95.2000 TD 30 -1 2 259
1910239N27268 1910 33 NA GM NOT_NAMED 1910-08-29 09:00:00 TS 26.3575 -95.3425 main 184 163 P_____________ AL021910 26.3575 -95.3425 TD 30 -1 3 249
1910239N27268 1910 33 NA GM NOT_NAMED 1910-08-29 12:00:00 TS 26.3000 -95.5000 30 hurdat_atl main 163 151 O_____________ hurdat_atl AL021910 26.3000 -95.5000 TD 30 -1 3 248
1910239N27268 1910 33 NA GM NOT_NAMED 1910-08-29 15:00:00 TS 26.2425 -95.6575 main 141 131 P_____________ AL021910 26.2425 -95.6575 TD 30 -1 3 249
1910239N27268 1910 33 NA GM NOT_NAMED 1910-08-29 18:00:00 TS 26.2000 -95.8000 30 hurdat_atl main 131 121 O_____________ hurdat_atl AL021910 26.2000 -95.8000 TD 30 -1 2 259
1910239N27268 1910 33 NA GM NOT_NAMED 1910-08-29 21:00:00 TS 26.2000 -95.9075 main 121 111 P_____________ AL021910 26.2000 -95.9075 TD 32 -1 2 270
1910239N27268 1910 33 NA GM NOT_NAMED 1910-08-30 00:00:00 TS 26.2000 -96.0000 35 hurdat_atl main 111 102 O_____________ hurdat_atl AL021910 26.2000 -96.0000 TS 35 0 2 256
1910239N27268 1910 33 NA GM NOT_NAMED 1910-08-30 03:00:00 TS 26.1575 -96.0925 main 102 90 P_____________ AL021910 26.1575 -96.0925 TS 35 0 2 241
1910239N27268 1910 33 NA GM NOT_NAMED 1910-08-30 06:00:00 TS 26.1000 -96.2000 35 hurdat_atl main 90 80 O_____________ hurdat_atl AL021910 26.1000 -96.2000 TS 35 0 2 243
1910239N27268 1910 33 NA GM NOT_NAMED 1910-08-30 09:00:00 TS 26.0500 -96.3350 main 79 59 P_____________ AL021910 26.0500 -96.3350 TS 37 0 3 249
1910239N27268 1910 33 NA GM NOT_NAMED 1910-08-30 12:00:00 TS 26.0000 -96.5000 40 hurdat_atl main 59 39 O_____________ hurdat_atl AL021910 26.0000 -96.5000 TS 40 0 3 254
1910239N27268 1910 33 NA GM NOT_NAMED 1910-08-30 15:00:00 TS 25.9575 -96.7000 main 39 22 P_____________ AL021910 25.9575 -96.7000 TS 40 0 4 254
1910239N27268 1910 33 NA GM NOT_NAMED 1910-08-30 18:00:00 TS 25.9000 -96.9000 40 hurdat_atl main 22 14 O_____________ hurdat_atl AL021910 25.9000 -96.9000 TS 40 0 3 244
1910239N27268 1910 33 NA GM NOT_NAMED 1910-08-30 21:00:00 TS 25.8074 -97.0500 main 20 0 P_____________ AL021910 25.8074 -97.0500 TS 40 0 3 234
1910239N27268 1910 33 NA GM NOT_NAMED 1910-08-31 00:00:00 TS 25.7000 -97.2000 40 hurdat_atl main 0 0 O_____________ hurdat_atl AL021910 25.7000 -97.2000 TS 40 0 4 236
1910239N27268 1910 33 NA NA NOT_NAMED 1910-08-31 03:00:00 TS 25.6000 -97.3925 main 0 0 P_____________ AL021910 25.6000 -97.3925 TS 37 0 4 241
1910239N27268 1910 33 NA NA NOT_NAMED 1910-08-31 06:00:00 TS 25.5000 -97.6000 35 hurdat_atl main 0 0 O_____________ hurdat_atl AL021910 25.5000 -97.6000 TS 35 0 4 241
1910239N27268 1910 33 NA NA NOT_NAMED 1910-08-31 09:00:00 TS 25.3999 -97.7924 main 0 0 P_____________ AL021910 25.3999 -97.7924 TS 32 -1 4 241
1910239N27268 1910 33 NA NA NOT_NAMED 1910-08-31 12:00:00 TS 25.3000 -98.0000 30 hurdat_atl main 0 0 O_____________ hurdat_atl AL021910 25.3000 -98.0000 TD 30 -1 5 244
1910239N27268 1910 33 NA NA NOT_NAMED 1910-08-31 15:00:00 TS 25.2001 -98.2401 main 0 0 P_____________ AL021910 25.2001 -98.2401 TD 27 -1 5 246
1910239N27268 1910 33 NA NA NOT_NAMED 1910-08-31 18:00:00 TS 25.1000 -98.5000 25 hurdat_atl main 0 O_____________ hurdat_atl AL021910 25.1000 -98.5000 TD 25 -1 5 247

About IBTrACS Database

This database is a web-friendly format of International Best Track Archive for Climate Stewardship (IBTrACS), a global best track data archive curated by NOAA dating back to 1842.

Updated: 2021-12-08